Time;durP1;ratioP1;P1;durP2;ratioP2;P2;SDS_P1;SDS_P2;PMS_P1;PMS_P2;Temp;Humidity;BMP_temperature;BMP_pressure;BME280_temperature;BME280_humidity;BME280_pressure;Samples;Min_cycle;Max_cycle;Signal;HPM_P1;HPM_P2
2021/12/31 00:00:22;;;;;;;6.07;2.42;;;13.10;99.90;;;;;;5038234;28;20584;-73
2021/12/31 00:02:48;;;;;;;6.60;2.25;;;13.10;99.90;;;;;;5038365;28;20053;-74
2021/12/31 00:05:14;;;;;;;6.35;2.55;;;13.00;99.90;;;;;;5038812;28;20059;-75
2021/12/31 00:07:39;;;;;;;6.68;2.30;;;13.00;99.90;;;;;;5037155;28;20055;-73
2021/12/31 00:10:06;;;;;;;9.10;2.60;;;13.00;99.90;;;;;;5023135;28;20053;-74
2021/12/31 00:12:33;;;;;;;9.43;2.45;;;13.00;99.90;;;;;;5037630;28;20045;-76
2021/12/31 00:14:59;;;;;;;7.32;2.97;;;13.10;99.90;;;;;;5072963;28;20044;-76
2021/12/31 00:17:25;;;;;;;7.03;2.35;;;13.00;99.90;;;;;;5038197;28;20500;-73
2021/12/31 00:20:00;;;;;;;6.35;2.38;;;13.00;99.90;;;;;;5005005;28;20057;-73
2021/12/31 00:24:55;;;;;;;7.70;2.75;;;13.10;99.90;;;;;;5070219;28;20053;-72
2021/12/31 00:27:21;;;;;;;6.10;2.63;;;13.00;99.90;;;;;;5039053;28;20399;-73
2021/12/31 00:29:47;;;;;;;10.52;2.78;;;13.10;99.90;;;;;;5019953;28;20049;-74
2021/12/31 00:32:13;;;;;;;8.18;2.50;;;13.10;99.90;;;;;;5055114;28;20111;-73
2021/12/31 00:34:39;;;;;;;7.75;2.53;;;13.10;99.90;;;;;;5021237;28;20433;-71
2021/12/31 00:37:05;;;;;;;7.28;2.38;;;13.10;99.90;;;;;;5037786;28;20049;-73
2021/12/31 00:39:31;;;;;;;7.32;2.58;;;13.10;99.90;;;;;;5054960;28;20398;-74
2021/12/31 00:41:56;;;;;;;6.43;2.70;;;13.10;99.90;;;;;;5053859;28;20042;-75
2021/12/31 00:44:24;;;;;;;7.38;2.63;;;13.10;99.90;;;;;;5039222;28;20592;-74
2021/12/31 00:46:49;;;;;;;7.35;2.60;;;13.10;99.90;;;;;;5038243;28;20404;-74
2021/12/31 00:49:15;;;;;;;8.20;2.92;;;13.10;99.90;;;;;;5022229;28;20069;-75
2021/12/31 00:51:41;;;;;;;9.70;2.83;;;13.00;99.90;;;;;;5021202;28;20102;-74
2021/12/31 00:54:07;;;;;;;6.97;2.95;;;13.00;99.90;;;;;;5038251;28;20077;-74
2021/12/31 00:56:33;;;;;;;7.63;2.63;;;13.10;99.90;;;;;;5021886;28;20053;-72
2021/12/31 00:59:00;;;;;;;8.02;3.25;;;13.10;99.90;;;;;;5019931;28;20049;-73
2021/12/31 01:01:26;;;;;;;8.18;3.30;;;13.10;99.90;;;;;;5038994;28;20088;-75
2021/12/31 01:03:52;;;;;;;8.05;3.20;;;13.00;99.90;;;;;;5069578;28;20178;-75
2021/12/31 01:06:18;;;;;;;6.50;2.83;;;13.10;99.90;;;;;;5037811;28;20077;-75
2021/12/31 01:08:44;;;;;;;5.22;2.40;;;13.10;99.90;;;;;;5020184;28;20080;-76
2021/12/31 01:11:10;;;;;;;6.82;3.13;;;13.10;99.90;;;;;;5054531;28;20052;-76
2021/12/31 01:14:01;;;;;;;7.15;2.67;;;13.20;99.90;;;;;;5038066;28;20056;-76
2021/12/31 01:16:25;;;;;;;11.13;3.08;;;13.20;99.90;;;;;;5022565;28;20049;-75
2021/12/31 01:21:20;;;;;;;7.70;3.03;;;13.10;99.90;;;;;;5069895;28;20527;-72
2021/12/31 01:23:50;;;;;;;12.00;3.45;;;13.20;99.90;;;;;;5037848;28;20049;-72
2021/12/31 01:26:17;;;;;;;9.77;3.38;;;13.20;99.90;;;;;;5037709;28;20057;-73
2021/12/31 01:28:43;;;;;;;8.70;2.97;;;13.10;99.90;;;;;;5036359;28;20047;-75
2021/12/31 01:31:08;;;;;;;7.47;2.67;;;13.20;99.90;;;;;;5038010;28;20096;-75
2021/12/31 01:33:34;;;;;;;7.82;3.10;;;13.20;99.90;;;;;;5035898;28;20057;-75
2021/12/31 01:36:00;;;;;;;12.32;3.78;;;13.20;99.90;;;;;;5020671;28;20089;-75
2021/12/31 01:38:27;;;;;;;12.13;3.92;;;13.60;99.90;;;;;;5052443;28;20077;-72
2021/12/31 01:40:53;;;;;;;5.85;2.60;;;13.10;99.90;;;;;;5037657;28;20049;-75
2021/12/31 01:43:19;;;;;;;8.82;3.00;;;13.10;99.90;;;;;;5019884;28;20045;-73
2021/12/31 01:45:55;;;;;;;7.22;2.70;;;13.20;99.90;;;;;;5019119;28;20041;-76
2021/12/31 01:50:52;;;;;;;8.18;2.75;;;13.20;99.90;;;;;;5019664;28;20103;-73
2021/12/31 01:53:22;;;;;;;5.63;2.40;;;13.10;99.90;;;;;;5037788;28;20042;-75
2021/12/31 01:55:49;;;;;;;8.38;3.00;;;13.20;99.90;;;;;;5035827;28;20073;-74
2021/12/31 01:58:20;;;;;;;9.40;3.10;;;13.20;99.90;;;;;;5053603;28;20049;-73
2021/12/31 02:00:47;;;;;;;7.32;2.58;;;13.20;99.90;;;;;;5037079;28;20085;-74
2021/12/31 02:03:12;;;;;;;8.18;2.88;;;13.20;99.90;;;;;;5035727;28;20105;-73
2021/12/31 02:05:38;;;;;;;7.40;3.33;;;13.10;99.90;;;;;;5036108;28;20073;-75
2021/12/31 02:08:05;;;;;;;6.78;3.25;;;13.20;99.90;;;;;;5035371;28;20125;-72
2021/12/31 02:10:31;;;;;;;8.98;4.00;;;13.20;99.90;;;;;;5037927;28;20481;-75
2021/12/31 02:12:57;;;;;;;9.00;3.40;;;13.20;99.90;;;;;;5035997;28;20088;-73
2021/12/31 02:15:25;;;;;;;7.90;3.67;;;13.20;99.90;;;;;;5038163;28;20048;-75
2021/12/31 02:17:51;;;;;;;10.00;3.95;;;13.20;99.90;;;;;;5037119;28;20076;-73
2021/12/31 02:20:19;;;;;;;8.43;3.50;;;13.20;99.90;;;;;;5034928;28;20481;-74
2021/12/31 02:23:05;;;;;;;10.63;3.22;;;13.20;99.90;;;;;;5036774;28;20075;-73
2021/12/31 02:25:31;;;;;;;10.60;3.90;;;13.20;99.90;;;;;;5068920;28;20065;-73
2021/12/31 02:27:57;;;;;;;6.82;3.90;;;13.20;99.90;;;;;;5036973;28;20287;-74
2021/12/31 02:30:23;;;;;;;6.43;3.70;;;13.20;99.90;;;;;;5053003;28;20042;-74
2021/12/31 02:32:49;;;;;;;8.25;3.85;;;13.30;99.90;;;;;;5019340;28;20057;-75
2021/12/31 02:35:15;;;;;;;6.07;4.10;;;13.40;99.90;;;;;;5019938;28;20093;-71
2021/12/31 02:37:41;;;;;;;8.00;4.38;;;13.30;99.90;;;;;;5035016;28;20118;-74
2021/12/31 02:40:11;;;;;;;7.07;4.13;;;13.40;99.90;;;;;;5037229;28;20045;-73
2021/12/31 02:42:37;;;;;;;9.05;4.47;;;13.40;99.90;;;;;;5019176;28;20045;-74
2021/12/31 02:45:06;;;;;;;5.90;3.90;;;13.40;99.90;;;;;;5020544;28;20053;-74
2021/12/31 02:47:32;;;;;;;8.55;4.50;;;13.30;99.90;;;;;;5036261;28;20049;-74
2021/12/31 02:49:57;;;;;;;8.82;4.53;;;13.30;99.90;;;;;;5035669;28;20056;-76
2021/12/31 02:52:23;;;;;;;7.38;4.45;;;13.40;99.90;;;;;;5036732;28;20045;-72
2021/12/31 02:54:52;;;;;;;6.93;4.95;;;13.30;99.90;;;;;;5035152;28;20388;-75
2021/12/31 02:57:20;;;;;;;8.07;5.03;;;13.30;99.90;;;;;;5070512;28;20048;-73
2021/12/31 02:59:46;;;;;;;8.52;4.57;;;13.40;99.90;;;;;;5018050;28;20172;-71
2021/12/31 03:02:12;;;;;;;6.97;4.70;;;13.40;99.90;;;;;;5053150;28;20042;-73
2021/12/31 03:04:39;;;;;;;7.53;4.50;;;13.50;99.90;;;;;;5035527;28;20144;-75
2021/12/31 03:07:09;;;;;;;6.22;4.35;;;13.40;99.90;;;;;;5035324;28;20061;-72
2021/12/31 03:09:38;;;;;;;8.32;4.32;;;13.40;99.90;;;;;;5053370;28;20076;-72
2021/12/31 03:12:06;;;;;;;9.73;5.18;;;13.50;99.90;;;;;;5035816;28;20057;-73
2021/12/31 03:14:32;;;;;;;8.82;4.63;;;13.50;99.90;;;;;;5037070;28;20083;-73
2021/12/31 03:17:00;;;;;;;9.15;5.20;;;13.40;99.90;;;;;;5037241;28;20064;-76
2021/12/31 03:19:26;;;;;;;7.65;4.65;;;13.50;99.90;;;;;;5056901;28;20049;-74
2021/12/31 03:21:51;;;;;;;6.95;5.32;;;13.50;99.90;;;;;;5039750;28;20052;-76
2021/12/31 03:24:17;;;;;;;7.68;5.50;;;13.50;99.90;;;;;;5038502;28;20037;-75
2021/12/31 03:26:43;;;;;;;8.27;4.95;;;13.50;99.90;;;;;;5023519;28;20111;-76
2021/12/31 03:29:08;;;;;;;8.32;5.15;;;13.60;99.90;;;;;;5005134;28;20077;-73
2021/12/31 03:31:34;;;;;;;7.72;4.78;;;13.60;99.90;;;;;;5040677;28;20037;-75
2021/12/31 03:34:00;;;;;;;8.70;4.93;;;13.60;99.90;;;;;;5038048;28;20057;-73
2021/12/31 03:36:26;;;;;;;8.45;4.82;;;13.50;99.90;;;;;;5039448;28;20621;-75
2021/12/31 03:38:52;;;;;;;6.20;4.55;;;13.60;99.90;;;;;;5038285;28;20059;-76
2021/12/31 03:41:17;;;;;;;6.05;4.70;;;13.60;99.90;;;;;;5005957;28;20045;-73
2021/12/31 03:43:43;;;;;;;6.20;4.50;;;13.60;99.90;;;;;;5039873;28;20072;-74
2021/12/31 03:46:10;;;;;;;7.13;4.60;;;13.60;99.90;;;;;;5021243;28;20456;-76
2021/12/31 03:48:36;;;;;;;6.53;5.00;;;13.60;99.90;;;;;;5023711;28;20049;-73
2021/12/31 03:51:02;;;;;;;8.05;4.80;;;13.60;99.90;;;;;;5037554;28;20045;-75
2021/12/31 03:53:27;;;;;;;7.57;4.70;;;13.60;99.90;;;;;;5023712;28;20048;-74
2021/12/31 03:55:53;;;;;;;7.40;3.88;;;13.60;99.90;;;;;;5039945;28;20105;-75
2021/12/31 03:58:19;;;;;;;5.75;4.43;;;13.60;99.90;;;;;;5038920;28;20055;-73
2021/12/31 04:00:46;;;;;;;6.15;4.47;;;13.60;99.90;;;;;;5022497;28;20045;-71
2021/12/31 04:03:12;;;;;;;8.63;4.88;;;13.60;99.90;;;;;;5021619;28;20398;-78
2021/12/31 04:05:40;;;;;;;7.60;4.78;;;13.60;99.90;;;;;;5022404;28;20153;-72
2021/12/31 04:08:06;;;;;;;8.77;4.70;;;13.70;99.90;;;;;;5021236;28;20088;-73
2021/12/31 04:10:32;;;;;;;7.40;4.55;;;13.60;99.90;;;;;;5039802;28;20501;-74
2021/12/31 04:12:58;;;;;;;7.53;4.65;;;13.70;99.90;;;;;;5038215;28;20041;-76
2021/12/31 04:15:24;;;;;;;6.28;4.55;;;13.60;99.90;;;;;;5038356;28;20084;-75
2021/12/31 04:17:50;;;;;;;7.45;5.32;;;13.60;99.90;;;;;;5055159;28;20041;-74
2021/12/31 04:20:21;;;;;;;7.88;5.13;;;13.60;99.90;;;;;;5054233;28;20041;-75
2021/12/31 04:22:54;;;;;;;7.78;5.22;;;13.60;99.90;;;;;;5023828;28;20079;-75
2021/12/31 04:25:21;;;;;;;9.43;4.93;;;13.60;99.90;;;;;;5037221;28;20046;-75
2021/12/31 04:27:47;;;;;;;7.00;4.55;;;13.60;99.90;;;;;;5022013;28;20052;-74
2021/12/31 04:30:13;;;;;;;8.05;4.95;;;13.60;99.90;;;;;;5037715;28;20053;-78
2021/12/31 04:32:39;;;;;;;9.55;4.65;;;13.60;99.90;;;;;;5037021;28;20033;-74
2021/12/31 04:35:11;;;;;;;6.40;4.60;;;13.70;99.90;;;;;;5037292;28;20057;-77
2021/12/31 04:37:39;;;;;;;9.85;5.60;;;13.60;99.90;;;;;;5036029;28;20057;-76
2021/12/31 04:40:08;;;;;;;7.10;4.70;;;13.60;99.90;;;;;;5021778;28;20064;-73
2021/12/31 04:42:34;;;;;;;6.28;4.78;;;13.60;99.90;;;;;;5020236;28;20049;-73
2021/12/31 04:44:59;;;;;;;7.70;5.68;;;13.60;99.90;;;;;;5040327;28;20047;-73
2021/12/31 04:47:25;;;;;;;7.75;4.57;;;13.60;99.90;;;;;;5005091;28;20083;-73
2021/12/31 04:49:51;;;;;;;6.82;4.47;;;13.60;99.90;;;;;;5038779;28;20109;-73
2021/12/31 04:52:16;;;;;;;8.18;5.03;;;13.60;99.90;;;;;;5038323;28;20069;-74
2021/12/31 04:54:42;;;;;;;5.45;4.47;;;13.60;99.90;;;;;;5052805;28;20085;-71
2021/12/31 04:57:08;;;;;;;6.55;4.03;;;13.60;99.90;;;;;;5022066;28;20513;-74
2021/12/31 04:59:34;;;;;;;5.82;4.03;;;13.60;99.90;;;;;;5036569;28;20055;-74
2021/12/31 05:01:59;;;;;;;5.68;3.95;;;13.70;99.90;;;;;;5055007;28;20045;-76
2021/12/31 05:04:25;;;;;;;7.40;3.97;;;13.70;99.90;;;;;;5020470;28;20041;-74
2021/12/31 05:06:51;;;;;;;8.98;3.80;;;13.70;99.90;;;;;;5037711;28;20049;-71
2021/12/31 05:09:17;;;;;;;6.90;3.90;;;13.70;99.90;;;;;;5021651;28;20049;-75
2021/12/31 05:11:43;;;;;;;6.95;3.50;;;13.70;99.90;;;;;;5036425;28;20955;-71
2021/12/31 05:14:09;;;;;;;5.25;3.03;;;13.60;99.90;;;;;;5038524;28;20424;-75
2021/12/31 05:16:35;;;;;;;5.70;3.10;;;13.70;99.90;;;;;;5036113;28;20058;-74
2021/12/31 05:19:03;;;;;;;5.63;3.30;;;13.70;99.90;;;;;;5038615;28;20049;-73
2021/12/31 05:21:29;;;;;;;4.13;2.97;;;13.70;99.90;;;;;;5036598;28;20052;-74
2021/12/31 05:23:56;;;;;;;5.95;2.92;;;13.70;99.90;;;;;;5037266;28;20053;-77
2021/12/31 05:26:21;;;;;;;6.82;3.00;;;13.70;99.90;;;;;;5071019;28;20084;-75
2021/12/31 05:28:47;;;;;;;6.10;2.72;;;13.70;99.90;;;;;;5036185;28;20037;-75
2021/12/31 05:31:13;;;;;;;5.50;2.55;;;13.70;99.90;;;;;;5021085;28;20099;-71
2021/12/31 05:33:38;;;;;;;6.22;2.67;;;13.70;99.90;;;;;;5035464;28;20050;-73
2021/12/31 05:36:04;;;;;;;3.53;1.90;;;13.70;99.90;;;;;;5037822;28;20449;-74
2021/12/31 05:38:30;;;;;;;3.50;2.00;;;13.70;99.90;;;;;;5019969;28;20060;-73
2021/12/31 05:40:56;;;;;;;3.92;2.13;;;13.70;99.90;;;;;;5020974;28;20140;-75
2021/12/31 05:43:21;;;;;;;5.32;2.53;;;13.70;99.90;;;;;;5036980;28;20040;-75
2021/12/31 05:45:47;;;;;;;3.35;2.10;;;13.40;99.90;;;;;;5036055;28;20037;-71
2021/12/31 05:48:13;;;;;;;5.63;2.20;;;13.70;99.90;;;;;;5037778;28;20046;-72
2021/12/31 05:50:39;;;;;;;3.92;2.13;;;13.60;99.90;;;;;;5068747;28;20079;-72
2021/12/31 05:53:04;;;;;;;8.27;2.53;;;13.60;99.90;;;;;;5037572;28;20057;-72
2021/12/31 05:55:30;;;;;;;5.68;2.25;;;13.60;99.90;;;;;;5035840;28;20469;-71
2021/12/31 05:57:57;;;;;;;5.63;2.00;;;13.60;99.90;;;;;;5070945;28;20045;-71
2021/12/31 06:00:24;;;;;;;5.70;2.33;;;13.60;99.90;;;;;;5036718;28;20053;-72
2021/12/31 06:02:50;;;;;;;4.30;2.10;;;13.60;99.90;;;;;;5069075;28;20049;-77
2021/12/31 06:05:16;;;;;;;4.72;2.50;;;13.50;99.90;;;;;;5037015;28;20088;-72
2021/12/31 06:07:41;;;;;;;3.17;2.22;;;13.50;99.90;;;;;;5036771;28;20072;-75
2021/12/31 06:10:08;;;;;;;5.57;2.40;;;13.40;99.90;;;;;;5038361;28;20050;-72
2021/12/31 06:12:38;;;;;;;4.57;2.13;;;13.30;99.90;;;;;;5035267;28;20080;-73
2021/12/31 06:15:08;;;;;;;5.28;2.50;;;13.30;99.90;;;;;;5036887;28;20057;-72
2021/12/31 06:17:33;;;;;;;5.45;2.85;;;13.20;99.90;;;;;;5036786;28;20050;-71
2021/12/31 06:19:59;;;;;;;3.75;2.28;;;13.20;99.90;;;;;;5035246;28;20076;-72
2021/12/31 06:22:25;;;;;;;3.67;1.75;;;13.20;99.90;;;;;;5038654;28;20057;-72
2021/12/31 06:24:51;;;;;;;5.60;2.45;;;13.20;99.90;;;;;;5035213;28;20054;-72
2021/12/31 06:27:18;;;;;;;5.70;2.58;;;13.20;99.90;;;;;;5038883;28;20052;-72
2021/12/31 06:29:44;;;;;;;3.65;2.00;;;13.20;99.90;;;;;;5036519;28;20151;-72
2021/12/31 06:32:10;;;;;;;5.68;2.47;;;13.10;99.90;;;;;;5037158;28;20049;-71
2021/12/31 06:34:36;;;;;;;4.20;2.42;;;13.10;99.90;;;;;;5037095;28;20445;-71
2021/12/31 06:37:02;;;;;;;4.05;2.22;;;13.10;99.90;;;;;;5036853;28;20057;-71
2021/12/31 06:39:28;;;;;;;6.97;2.45;;;13.20;99.90;;;;;;5036990;28;20057;-72
2021/12/31 06:41:54;;;;;;;5.00;2.53;;;13.10;99.90;;;;;;5018368;28;20057;-72
2021/12/31 06:44:20;;;;;;;6.30;2.38;;;13.10;99.90;;;;;;5037199;28;20067;-72
2021/12/31 06:46:46;;;;;;;4.72;2.28;;;13.10;99.90;;;;;;5034765;28;20053;-73
2021/12/31 06:49:12;;;;;;;4.50;2.60;;;13.10;99.90;;;;;;5036666;28;20497;-72
2021/12/31 06:51:38;;;;;;;4.93;2.50;;;13.00;99.90;;;;;;5037800;28;20041;-72
2021/12/31 06:54:03;;;;;;;7.78;2.95;;;13.00;99.90;;;;;;5040088;28;20049;-72
2021/12/31 06:56:29;;;;;;;7.10;3.00;;;12.90;99.90;;;;;;5042025;28;20088;-73
2021/12/31 06:58:55;;;;;;;4.38;2.08;;;12.90;99.90;;;;;;5072243;28;20105;-72
2021/12/31 07:01:21;;;;;;;4.22;2.50;;;12.80;99.90;;;;;;5057842;28;20087;-72
2021/12/31 07:03:47;;;;;;;3.95;2.38;;;12.80;99.90;;;;;;5022575;28;20053;-71
2021/12/31 07:06:13;;;;;;;7.65;3.28;;;12.80;99.90;;;;;;5040474;28;20077;-73
2021/12/31 07:08:39;;;;;;;4.75;2.17;;;12.80;99.90;;;;;;5023224;28;20056;-72
2021/12/31 07:11:05;;;;;;;5.35;2.53;;;12.70;99.90;;;;;;5041046;28;20060;-73
2021/12/31 07:13:31;;;;;;;4.35;2.53;;;12.80;99.90;;;;;;5056834;28;20053;-74
2021/12/31 07:15:56;;;;;;;6.50;2.72;;;12.80;99.90;;;;;;5022009;28;20126;-72
2021/12/31 07:18:23;;;;;;;7.68;3.15;;;12.70;99.90;;;;;;5024268;28;20057;-73
2021/12/31 07:20:49;;;;;;;4.55;2.30;;;12.80;99.90;;;;;;5071558;28;20056;-71
2021/12/31 07:23:20;;;;;;;6.40;2.72;;;12.80;99.90;;;;;;5040526;28;20125;-72
2021/12/31 07:25:46;;;;;;;5.72;2.67;;;12.70;99.90;;;;;;5038632;28;20053;-72
2021/12/31 07:28:14;;;;;;;5.85;2.97;;;12.70;99.90;;;;;;5039462;28;20052;-72
2021/12/31 07:30:41;;;;;;;4.38;2.70;;;12.70;99.90;;;;;;5040062;28;20533;-71
2021/12/31 07:33:23;;;;;;;7.75;2.95;;;12.70;99.90;;;;;;5038211;28;20037;-72
2021/12/31 07:35:51;;;;;;;5.25;2.38;;;12.60;99.90;;;;;;5041263;28;20060;-73
2021/12/31 07:38:37;;;;;;;4.55;2.70;;;12.60;99.90;;;;;;5054700;28;20049;-71
2021/12/31 07:41:04;;;;;;;5.95;3.10;;;12.60;99.90;;;;;;5042082;28;20057;-74
2021/12/31 07:43:31;;;;;;;5.50;2.85;;;12.60;99.90;;;;;;5039741;28;20053;-72
2021/12/31 07:45:56;;;;;;;7.65;2.78;;;12.50;99.90;;;;;;5038077;28;20033;-70
2021/12/31 07:48:23;;;;;;;5.38;2.42;;;12.60;99.90;;;;;;5040014;28;20100;-72
2021/12/31 07:50:51;;;;;;;5.30;2.85;;;12.60;99.90;;;;;;5054142;28;20037;-73
2021/12/31 07:53:17;;;;;;;4.88;3.17;;;12.50;99.90;;;;;;5040055;28;20049;-73
2021/12/31 07:55:42;;;;;;;5.97;3.20;;;12.50;99.90;;;;;;5038224;28;20071;-71
2021/12/31 07:58:08;;;;;;;5.18;3.08;;;12.50;99.90;;;;;;5072369;28;20068;-71
2021/12/31 08:00:35;;;;;;;5.22;2.72;;;12.50;99.90;;;;;;5022567;28;20041;-72
2021/12/31 08:03:02;;;;;;;6.00;3.25;;;12.40;99.90;;;;;;5019548;28;20052;-71
2021/12/31 08:05:30;;;;;;;6.60;3.55;;;12.40;99.90;;;;;;5055526;28;20041;-71
2021/12/31 08:07:56;;;;;;;7.90;3.40;;;12.40;99.90;;;;;;5070434;28;20053;-72
2021/12/31 08:10:22;;;;;;;7.72;3.08;;;11.70;99.90;;;;;;5039923;28;20068;-73
2021/12/31 08:12:47;;;;;;;4.90;3.45;;;12.30;99.90;;;;;;5037838;28;20069;-72
2021/12/31 08:15:14;;;;;;;5.85;3.40;;;12.30;99.90;;;;;;5040103;28;20045;-74
2021/12/31 08:17:40;;;;;;;7.18;3.63;;;12.30;99.90;;;;;;5038729;28;20047;-72
2021/12/31 08:20:06;;;;;;;7.00;3.25;;;12.30;99.90;;;;;;5037516;28;20576;-71
2021/12/31 08:22:32;;;;;;;6.18;3.13;;;12.30;99.90;;;;;;5022772;28;20045;-72
2021/12/31 08:24:58;;;;;;;5.30;3.10;;;12.30;99.90;;;;;;5037653;28;20052;-74
2021/12/31 08:27:24;;;;;;;5.57;3.22;;;12.40;99.90;;;;;;5056345;28;20494;-72
2021/12/31 08:29:49;;;;;;;6.68;2.78;;;12.40;99.90;;;;;;5021079;28;20088;-72
2021/12/31 08:32:15;;;;;;;5.82;3.22;;;12.50;99.90;;;;;;5022805;28;20081;-73
2021/12/31 08:34:41;;;;;;;6.40;3.10;;;12.50;99.90;;;;;;5022855;28;20117;-75
2021/12/31 08:37:07;;;;;;;5.88;2.78;;;12.50;99.90;;;;;;5020791;28;20056;-73
2021/12/31 08:39:33;;;;;;;9.85;3.13;;;12.50;99.90;;;;;;5038429;28;20113;-71
2021/12/31 08:42:04;;;;;;;5.82;2.85;;;12.60;99.90;;;;;;4997582;28;20042;-72
2021/12/31 08:44:33;;;;;;;6.10;3.20;;;12.60;99.90;;;;;;5067971;28;20057;-75
2021/12/31 08:46:59;;;;;;;7.50;2.78;;;12.60;99.90;;;;;;5036103;28;20083;-72
2021/12/31 08:49:25;;;;;;;5.93;3.05;;;12.60;99.90;;;;;;5020371;28;20557;-72
2021/12/31 08:51:51;;;;;;;6.50;2.75;;;12.70;99.90;;;;;;5037041;28;20077;-74
2021/12/31 08:54:16;;;;;;;6.88;3.10;;;12.70;99.90;;;;;;5018642;28;20049;-73
2021/12/31 08:56:43;;;;;;;6.60;2.95;;;12.70;99.90;;;;;;5038347;28;20058;-74
2021/12/31 08:59:09;;;;;;;7.07;2.83;;;12.60;99.90;;;;;;5036218;28;20669;-70
2021/12/31 09:01:35;;;;;;;6.85;2.90;;;12.70;99.90;;;;;;5040088;28;20038;-69
2021/12/31 09:04:01;;;;;;;5.72;2.90;;;12.70;99.90;;;;;;5035434;28;20054;-73
2021/12/31 09:06:26;;;;;;;4.82;2.90;;;12.70;99.90;;;;;;5004615;28;20379;-74
2021/12/31 09:08:52;;;;;;;5.07;2.88;;;12.70;99.90;;;;;;5037501;28;20060;-75
2021/12/31 09:11:18;;;;;;;7.03;2.80;;;12.70;99.90;;;;;;5053010;28;20053;-76
2021/12/31 09:13:46;;;;;;;7.38;3.30;;;12.80;99.90;;;;;;5004240;28;20069;-74
2021/12/31 09:16:12;;;;;;;5.35;3.22;;;12.80;99.90;;;;;;5036114;28;20048;-72
2021/12/31 09:18:37;;;;;;;4.38;2.65;;;12.80;99.90;;;;;;5054114;28;20085;-72
2021/12/31 09:21:04;;;;;;;7.60;3.40;;;12.80;99.90;;;;;;5035826;28;20517;-72
2021/12/31 09:23:30;;;;;;;6.43;3.28;;;12.80;99.90;;;;;;5036892;28;20053;-74
2021/12/31 09:25:58;;;;;;;8.63;3.35;;;12.80;99.90;;;;;;5037176;28;20065;-71
2021/12/31 09:28:27;;;;;;;6.60;3.42;;;12.80;99.90;;;;;;5036192;28;20107;-72
2021/12/31 09:30:52;;;;;;;6.97;2.85;;;12.80;99.90;;;;;;5037870;28;20049;-76
2021/12/31 09:33:18;;;;;;;6.88;3.47;;;12.80;99.90;;;;;;5034794;28;20109;-72
2021/12/31 09:35:44;;;;;;;4.28;2.78;;;12.80;99.90;;;;;;4987973;28;20103;-75
2021/12/31 09:38:10;;;;;;;6.95;3.15;;;12.80;99.90;;;;;;5035731;28;20131;-73
2021/12/31 09:40:36;;;;;;;5.35;2.88;;;12.80;99.90;;;;;;5021008;28;20045;-73
2021/12/31 09:43:08;;;;;;;7.13;3.38;;;12.80;99.90;;;;;;5019470;28;20041;-72
2021/12/31 09:45:39;;;;;;;6.80;3.20;;;12.80;99.90;;;;;;5036109;28;20063;-73
2021/12/31 09:48:13;;;;;;;6.82;3.10;;;12.90;99.90;;;;;;5037399;28;20041;-74
2021/12/31 09:50:42;;;;;;;5.45;3.00;;;13.00;99.90;;;;;;5035743;28;20041;-72
2021/12/31 09:53:09;;;;;;;5.07;2.90;;;13.00;99.90;;;;;;5037191;28;20098;-76
2021/12/31 09:55:35;;;;;;;6.32;2.85;;;12.90;99.90;;;;;;5035413;28;20460;-72
2021/12/31 09:58:01;;;;;;;5.43;3.03;;;12.90;99.90;;;;;;5036375;28;20313;-76
2021/12/31 10:00:27;;;;;;;5.53;3.40;;;12.90;99.90;;;;;;5070129;28;20092;-73
2021/12/31 10:03:13;;;;;;;4.40;2.70;;;13.00;99.90;;;;;;5051237;28;20041;-73
2021/12/31 10:05:51;;;;;;;5.00;3.22;;;13.00;99.90;;;;;;5037099;28;20048;-75
2021/12/31 10:08:19;;;;;;;5.75;3.40;;;12.90;99.90;;;;;;5068719;28;20037;-73
2021/12/31 10:11:05;;;;;;;5.55;3.17;;;12.90;99.90;;;;;;5036898;28;20053;-74
2021/12/31 10:13:32;;;;;;;5.95;2.95;;;12.90;99.90;;;;;;5032559;28;20098;-74
2021/12/31 10:15:59;;;;;;;6.05;2.95;;;12.90;99.90;;;;;;5018769;28;20052;-74
2021/12/31 10:18:37;;;;;;;6.35;3.33;;;12.90;99.90;;;;;;5036664;28;20131;-72
2021/12/31 10:21:04;;;;;;;7.05;3.65;;;12.90;99.90;;;;;;5018304;28;20061;-74
2021/12/31 10:23:36;;;;;;;7.68;3.47;;;12.90;99.90;;;;;;5036332;28;20072;-74
2021/12/31 10:26:17;;;;;;;5.35;2.83;;;12.90;99.90;;;;;;5035292;28;20053;-77
2021/12/31 10:28:57;;;;;;;5.38;2.90;;;12.90;99.90;;;;;;5019722;28;20512;-74
2021/12/31 10:31:23;;;;;;;6.10;3.97;;;12.80;99.90;;;;;;5064739;22;20085;-77
2021/12/31 10:33:50;;;;;;;5.75;3.03;;;12.80;99.90;;;;;;5030157;28;20097;-77
2021/12/31 10:36:37;;;;;;;6.07;3.40;;;12.80;99.90;;;;;;5030008;28;20049;-79
2021/12/31 10:39:16;;;;;;;5.63;3.38;;;12.80;99.90;;;;;;5031451;28;20057;-78
2021/12/31 10:41:44;;;;;;;6.75;3.35;;;12.80;99.90;;;;;;5031238;28;20098;-76
2021/12/31 10:44:10;;;;;;;6.28;3.75;;;12.80;99.90;;;;;;5030996;28;20049;-77
2021/12/31 10:46:35;;;;;;;7.32;3.45;;;12.80;99.90;;;;;;5031036;28;20053;-77
2021/12/31 10:49:07;;;;;;;4.55;3.20;;;12.80;99.90;;;;;;5030693;28;20103;-76
2021/12/31 10:51:46;;;;;;;6.10;3.20;;;12.80;99.90;;;;;;5031394;28;20057;-78
2021/12/31 10:54:31;;;;;;;8.38;3.80;;;12.80;99.90;;;;;;5030499;28;20506;-79
2021/12/31 10:56:58;;;;;;;10.10;3.60;;;12.80;99.90;;;;;;5030640;28;20057;-76
2021/12/31 10:59:24;;;;;;;5.85;3.83;;;12.80;99.90;;;;;;5030992;28;20485;-79
2021/12/31 11:01:51;;;;;;;7.28;3.22;;;12.80;99.90;;;;;;5030866;28;20501;-75
2021/12/31 11:04:21;;;;;;;6.72;3.88;;;12.80;99.90;;;;;;5030635;28;20073;-76
2021/12/31 11:06:47;;;;;;;6.35;3.20;;;12.80;99.90;;;;;;5030335;28;20593;-77
2021/12/31 11:09:14;;;;;;;7.40;3.45;;;12.80;99.90;;;;;;5026877;28;20089;-76
2021/12/31 11:11:43;;;;;;;8.50;3.83;;;12.80;99.90;;;;;;5010939;28;20050;-76
2021/12/31 11:14:10;;;;;;;6.15;3.70;;;12.80;99.90;;;;;;5010612;28;20457;-77
2021/12/31 11:16:39;;;;;;;7.57;3.60;;;12.80;99.90;;;;;;5011193;28;20434;-77
2021/12/31 11:19:06;;;;;;;8.13;3.88;;;12.80;99.90;;;;;;5009860;28;20450;-76
2021/12/31 11:21:33;;;;;;;6.57;4.00;;;12.80;99.90;;;;;;5011126;28;20084;-76
2021/12/31 11:24:30;;;;;;;6.95;4.18;;;12.80;99.90;;;;;;5010754;28;20061;-76
2021/12/31 11:27:19;;;;;;;6.78;4.20;;;12.80;99.90;;;;;;5012097;28;20544;-78
2021/12/31 11:29:45;;;;;;;9.63;4.32;;;12.80;99.90;;;;;;5010429;28;20483;-77
2021/12/31 11:32:11;;;;;;;7.35;4.53;;;12.80;99.90;;;;;;5011960;28;20111;-75
2021/12/31 11:34:37;;;;;;;8.18;4.45;;;12.80;99.90;;;;;;5029543;28;20104;-78
2021/12/31 11:37:03;;;;;;;6.75;4.25;;;12.80;99.90;;;;;;5031137;28;20137;-78
2021/12/31 11:39:33;;;;;;;7.22;4.07;;;12.80;99.90;;;;;;5033728;28;20124;-77
2021/12/31 11:42:08;;;;;;;5.75;3.58;;;12.80;99.90;;;;;;5034479;28;20085;-75
2021/12/31 11:44:37;;;;;;;6.53;4.15;;;12.80;99.90;;;;;;5033685;28;20071;-74
2021/12/31 11:47:18;;;;;;;5.28;3.40;;;12.80;99.90;;;;;;5033530;28;20053;-76
2021/12/31 11:49:45;;;;;;;7.45;4.30;;;12.80;99.90;;;;;;5033670;28;20038;-75
2021/12/31 11:52:14;;;;;;;7.63;4.88;;;12.80;99.90;;;;;;5015975;28;20564;-75
2021/12/31 11:54:41;;;;;;;6.90;4.20;;;12.80;99.90;;;;;;5033936;28;20128;-75
2021/12/31 11:57:27;;;;;;;7.15;4.03;;;12.70;99.90;;;;;;5033853;28;20068;-76
2021/12/31 11:59:54;;;;;;;9.75;4.18;;;12.70;99.90;;;;;;5033884;28;20095;-76
2021/12/31 12:02:31;;;;;;;7.13;4.47;;;12.70;99.90;;;;;;5031444;28;20042;-75
2021/12/31 12:05:02;;;;;;;6.90;4.20;;;12.60;99.90;;;;;;5033514;28;20103;-75
2021/12/31 12:07:34;;;;;;;7.10;4.15;;;12.60;99.90;;;;;;5023834;28;20112;-76
2021/12/31 12:10:00;;;;;;;9.63;4.43;;;12.60;99.90;;;;;;5013444;28;20053;-76
2021/12/31 12:12:27;;;;;;;8.70;4.45;;;12.60;99.90;;;;;;5013559;28;20054;-76
2021/12/31 12:14:56;;;;;;;9.50;4.40;;;12.60;99.90;;;;;;5013952;28;20054;-78
2021/12/31 12:17:31;;;;;;;7.45;4.13;;;12.50;99.90;;;;;;5013340;28;20763;-77
2021/12/31 12:20:02;;;;;;;8.27;4.63;;;12.60;99.90;;;;;;5029329;28;20053;-77
2021/12/31 12:22:50;;;;;;;9.05;4.60;;;12.60;99.90;;;;;;5032350;28;20057;-83
2021/12/31 12:25:27;;;;;;;9.60;4.53;;;12.60;99.90;;;;;;5033100;28;20143;-79
2021/12/31 12:28:06;;;;;;;7.65;5.07;;;12.60;99.90;;;;;;5033350;28;20104;-78
2021/12/31 12:30:43;;;;;;;6.93;4.70;;;12.60;99.90;;;;;;5033440;28;20114;-79
2021/12/31 12:35:39;;;;;;;9.55;5.15;;;12.60;99.90;;;;;;5016051;28;20521;-80
2021/12/31 12:38:23;;;;;;;9.75;4.55;;;12.50;99.90;;;;;;5033264;28;20045;-78
2021/12/31 12:41:02;;;;;;;10.10;4.32;;;12.50;99.90;;;;;;5032449;28;20104;-76
2021/12/31 12:43:47;;;;;;;10.90;5.90;;;12.50;99.90;;;;;;5032463;28;20053;-77
2021/12/31 12:46:14;;;;;;;9.70;5.85;;;12.40;99.90;;;;;;5032374;28;20136;-78
2021/12/31 12:48:42;;;;;;;9.77;5.55;;;12.40;99.90;;;;;;5030630;28;20408;-79
2021/12/31 12:51:11;;;;;;;13.27;6.20;;;12.30;99.90;;;;;;5033252;28;20045;-76
2021/12/31 12:53:41;;;;;;;14.73;7.18;;;12.20;99.90;;;;;;5032990;28;20085;-77
2021/12/31 12:56:10;;;;;;;13.45;6.50;;;12.10;99.90;;;;;;5032819;28;20080;-76
2021/12/31 12:58:57;;;;;;;11.85;7.35;;;12.00;99.90;;;;;;5033173;28;20091;-76